Terminal Aerodrome Forecast
Issued by NWS

Home | Current Version | Previous Version | Text Only | Print | Product List | Glossary On
Versions: 1 2 3 4 5 6 7 8 9 10 11 12 13 14 15 16 17 18 19 20 21 22 23 24
000
FTUS43 KGRB 232100 AAA
TAFCWA
TAF AMD
KCWA 232153Z 2322/2418 14004KT 1/4SM -RA FG OVC003
      TEMPO 2322/2401 3/4SM -RA BR OVC002
     FM240100 VRB03KT 3/4SM -RA BR OVC002
     FM240700 32008KT 1/2SM -RA FG OVC002
     FM241200 31010KT 1SM -RA BR OVC005
     FM241500 31012G18KT 2SM -SN OVC007=

USA.gov is the U.S. government's official web portal to all federal, state and local government web resources and services.